KGSP/GSP METAR and TAF weather

Enter ICAO airport designator
Station Type Date Time Source
KGSP METAR 2022/05/26 03:53 UTC NOAA

KGSP 260353Z AUTO 03005KT 10SM OVC018 18/16 A3021 RMK AO2 SLP222 T01830156


Station Type Date Time Source
KGSP Decoded METAR 2022/05/26 03:53 UTC NOAA

GREER GREENVILLE SPARTBURG, SC, United States (KGSP) 34-53N 82-13W 286M
May 25, 2022 - 11:53 PM EDT / 2022.05.26 0353 UTC
Wind: from the NNE (030 degrees) at 6 MPH (5 KT):0
Visibility: 10 mile(s):0
Sky conditions: overcast
Temperature: 64.9 F (18.3 C)
Dew Point: 60.1 F (15.6 C)
Relative Humidity: 84%
Pressure (altimeter): 30.21 in. Hg (1023 hPa)
ob: KGSP 260353Z AUTO 03005KT 10SM OVC018 18/16 A3021 RMK AO2 SLP222 T01830156
cycle: 4

Station Type Date Time Source
KGSP TAF 2022/05/25 18:42 UTC NOAA

TAF KGSP 251739Z 2518/2618 06007KT P6SM OVC015
FM252200 07008KT P6SM BKN045
FM260200 06010KT P6SM OVC019
FM260700 10006KT P6SM OVC006
FM261500 14009KT 5SM -SHRA BR BKN006 PROB30 2615/2618 2SM TSRA BR OVC004CB

Example: see airport list